Agua Boa, Brazil
Current Conditions -  °F | °C
As of 11:00 AM on Thursday 27 Nov 2014 (Local Time) from SBBW Reporting Station
Scattered Clouds Scattered Clouds  
Wind Chill: 82°   Ceiling: Unl
Heat Index: 86°   Visibility: 6mi
Dew Point: 70°   Wind: 6mph
Humidity: 66%   Direction: 290°WNW
Pressure: 29.97"   Gusts: NA
Location:  14.05°S, 52.16°W
Report Text: SBBW 271400Z 29005KT 9999 SCT020 SCT090 28/21 Q1015
Loading
Personal Weather Stations






























Interactive Weather Map New forecast layout! Learn more

10-Day Weather Forecast

Advertisements
Track Severe Weather on mobile